createdAt,value
2022-12-09T00:00:55.949Z,99525.13
2022-12-09T00:03:29.442Z,99522.70
2022-12-09T00:06:04.113Z,99528.69
2022-12-09T00:08:37.685Z,99526.23
2022-12-09T00:11:11.580Z,99530.66
2022-12-09T00:13:45.009Z,99535.77
2022-12-09T00:16:19.132Z,99530.66
2022-12-09T00:18:53.618Z,99528.87
2022-12-09T00:21:29.629Z,99510.03
2022-12-09T00:24:05.106Z,99532.02
2022-12-09T00:26:38.527Z,99518.47
2022-12-09T00:29:13.426Z,99519.34
2022-12-09T00:31:49.605Z,99527.91
2022-12-09T00:34:23.115Z,99523.90
2022-12-09T00:36:56.602Z,99526.73
2022-12-09T00:39:29.989Z,99531.94
2022-12-09T00:42:03.168Z,99527.84
2022-12-09T00:44:36.399Z,99534.63
2022-12-09T00:47:09.651Z,99520.17
2022-12-09T00:49:43.325Z,99521.72
2022-12-09T00:52:16.703Z,99525.38
2022-12-09T00:54:50.497Z,99536.37
2022-12-09T00:57:24.289Z,99535.59
2022-12-09T00:59:57.681Z,99520.27
2022-12-09T01:02:31.571Z,99521.72
2022-12-09T01:05:05.423Z,99508.86
2022-12-09T01:07:39.039Z,99514.97
2022-12-09T01:10:13.118Z,99520.85
2022-12-09T01:12:46.863Z,99524.19
2022-12-09T01:15:20.290Z,99525.28
2022-12-09T01:17:53.829Z,99520.45
2022-12-09T01:20:27.119Z,99511.23
2022-12-09T01:23:00.598Z,99523.82
2022-12-09T01:25:34.200Z,99497.47
2022-12-09T01:28:07.736Z,99519.08
2022-12-09T01:30:41.213Z,99504.66
2022-12-09T01:33:14.449Z,99510.45
2022-12-09T01:35:47.547Z,99498.64
2022-12-09T01:38:21.451Z,99488.52
2022-12-09T01:40:57.780Z,99503.07
2022-12-09T01:43:31.111Z,99495.31
2022-12-09T01:46:04.941Z,99514.19
2022-12-09T01:48:41.727Z,99512.19
2022-12-09T01:51:17.657Z,99507.30
2022-12-09T01:53:53.125Z,99498.87
2022-12-09T01:56:29.340Z,99515.94
2022-12-09T01:59:05.890Z,99505.94
2022-12-09T02:01:40.501Z,99501.89
2022-12-09T02:04:14.370Z,99508.88
2022-12-09T02:06:47.871Z,99512.73
2022-12-09T02:09:22.759Z,99507.72
2022-12-09T02:12:04.742Z,99510.46
2022-12-09T02:14:42.039Z,99502.02
2022-12-09T02:17:30.288Z,99512.05
2022-12-09T02:20:08.769Z,99515.57
2022-12-09T02:22:45.963Z,99507.53
2022-12-09T02:25:25.977Z,99502.20
2022-12-09T02:28:10.767Z,99502.02
2022-12-09T02:30:47.240Z,99497.59
2022-12-09T02:33:30.282Z,99501.42
2022-12-09T02:36:07.680Z,99506.53
2022-12-09T02:38:44.445Z,99504.45
2022-12-09T02:41:20.782Z,99509.68
2022-12-09T02:43:57.062Z,99516.34
2022-12-09T02:46:34.627Z,99506.03
2022-12-09T02:49:09.782Z,99506.81
2022-12-09T02:51:48.828Z,99501.80
2022-12-09T02:54:25.173Z,99503.56
2022-12-09T02:57:03.126Z,99501.98
2022-12-09T02:59:38.376Z,99506.89
2022-12-09T03:02:20.151Z,99504.34
2022-12-09T03:04:59.347Z,99497.55
2022-12-09T03:07:39.089Z,99501.11
2022-12-09T03:10:18.857Z,99497.77
2022-12-09T03:12:56.298Z,99507.77
2022-12-09T03:15:34.025Z,99495.91
2022-12-09T03:20:56.739Z,99489.80
2022-12-09T03:23:33.317Z,99497.55
2022-12-09T03:26:09.491Z,99498.45
2022-12-09T03:28:47.784Z,99492.25
2022-12-09T03:31:21.588Z,99499.41
2022-12-09T03:33:58.899Z,99496.66
2022-12-09T03:36:36.636Z,99484.28
2022-12-09T03:39:12.175Z,99490.70
2022-12-09T03:41:49.900Z,99487.97
2022-12-09T03:44:27.697Z,99482.95
2022-12-09T03:47:03.575Z,99478.62
2022-12-09T03:49:40.693Z,99489.80
2022-12-09T03:52:20.015Z,99488.34
2022-12-09T03:54:57.676Z,99488.25
2022-12-09T03:57:34.172Z,99482.55
2022-12-09T04:00:12.234Z,99479.58
2022-12-09T04:02:47.195Z,99474.28
2022-12-09T04:05:20.545Z,99480.08
2022-12-09T04:07:54.113Z,99491.57
2022-12-09T04:10:30.555Z,99477.13
2022-12-09T04:13:04.506Z,99485.09
2022-12-09T04:15:38.085Z,99477.44
2022-12-09T04:18:11.546Z,99479.30
2022-12-09T04:20:44.718Z,99480.59
2022-12-09T04:23:18.181Z,99477.34
2022-12-09T04:25:51.785Z,99479.03
2022-12-09T04:28:24.951Z,99479.22
2022-12-09T04:30:58.195Z,99479.22
2022-12-09T04:33:33.228Z,99474.97
2022-12-09T04:36:09.761Z,99480.17
2022-12-09T04:38:44.802Z,99476.16
2022-12-09T04:41:22.152Z,99467.72
2022-12-09T04:43:58.834Z,99472.92
2022-12-09T04:46:33.215Z,99463.70
2022-12-09T04:49:08.922Z,99460.84
2022-12-09T04:51:43.067Z,99458.00
2022-12-09T04:54:17.292Z,99475.87
2022-12-09T04:56:51.139Z,99471.45
2022-12-09T04:59:24.572Z,99470.36
2022-12-09T05:01:57.947Z,99482.86
2022-12-09T05:04:31.559Z,99469.40
2022-12-09T05:07:05.456Z,99463.60
2022-12-09T05:09:38.587Z,99463.88
2022-12-09T05:12:12.619Z,99450.32
2022-12-09T05:14:45.937Z,99462.91
2022-12-09T05:17:19.568Z,99449.83
2022-12-09T05:19:55.850Z,99456.03
2022-12-09T05:22:29.296Z,99450.41
2022-12-09T05:25:02.887Z,99453.38
2022-12-09T05:27:36.200Z,99449.65
2022-12-09T05:30:11.915Z,99453.67
2022-12-09T05:32:45.529Z,99449.65
2022-12-09T05:35:19.297Z,99446.78
2022-12-09T05:37:52.760Z,99450.93
2022-12-09T05:40:25.901Z,99454.95
2022-12-09T05:42:59.107Z,99459.06
2022-12-09T05:45:32.355Z,99456.13
2022-12-09T05:48:05.901Z,99454.45
2022-12-09T05:50:39.439Z,99460.15
2022-12-09T05:53:12.846Z,99457.22
2022-12-09T05:55:52.653Z,99453.58
2022-12-09T05:58:25.966Z,99448.38
2022-12-09T06:01:00.796Z,99449.84
2022-12-09T06:03:34.071Z,99445.52
2022-12-09T06:06:12.577Z,99442.45
2022-12-09T06:08:48.815Z,99442.08
2022-12-09T06:11:24.039Z,99440.41
2022-12-09T06:13:57.822Z,99439.13
2022-12-09T06:16:31.384Z,99434.61
2022-12-09T06:19:06.320Z,99427.13
2022-12-09T06:21:41.677Z,99444.32
2022-12-09T06:24:14.963Z,99434.10
2022-12-09T06:26:48.329Z,99437.47
2022-12-09T06:29:21.972Z,99438.25
2022-12-09T06:31:55.523Z,99431.55
2022-12-09T06:34:30.702Z,99431.45
2022-12-09T06:37:04.113Z,99431.27
2022-12-09T06:39:37.539Z,99428.90
2022-12-09T06:42:10.893Z,99436.87
2022-12-09T06:44:44.886Z,99426.34
2022-12-09T06:47:18.469Z,99426.56
2022-12-09T06:49:51.648Z,99425.97
2022-12-09T06:52:25.314Z,99429.70
2022-12-09T06:54:58.728Z,99425.55
2022-12-09T06:57:32.303Z,99423.48
2022-12-09T07:00:09.995Z,99421.14
2022-12-09T07:02:42.976Z,99422.79
2022-12-09T07:05:17.664Z,99414.44
2022-12-09T07:07:54.036Z,99414.83
2022-12-09T07:10:28.069Z,99413.14
2022-12-09T07:13:01.757Z,99418.25
2022-12-09T07:15:35.122Z,99410.88
2022-12-09T07:18:10.257Z,99398.19
2022-12-09T07:20:43.527Z,99407.63
2022-12-09T07:23:16.708Z,99397.23
2022-12-09T07:25:57.887Z,99396.06
2022-12-09T07:28:31.598Z,99395.16
2022-12-09T07:31:05.866Z,99390.35
2022-12-09T07:33:39.053Z,99391.95
2022-12-09T07:36:19.071Z,99401.66
2022-12-09T07:38:48.286Z,99406.41
2022-12-09T07:41:21.799Z,99400.57
2022-12-09T07:43:55.187Z,99411.19
2022-12-09T07:46:28.995Z,99412.36
2022-12-09T07:49:05.361Z,99413.53
2022-12-09T07:51:38.939Z,99417.08
2022-12-09T07:54:14.687Z,99400.75
2022-12-09T07:56:48.272Z,99398.70
2022-12-09T07:59:22.339Z,99404.60
2022-12-09T08:01:57.830Z,99403.91
2022-12-09T08:04:31.979Z,99381.69
2022-12-09T08:07:05.552Z,99402.73
2022-12-09T08:09:39.494Z,99389.27
2022-12-09T08:12:15.157Z,99383.76
2022-12-09T08:14:49.391Z,99388.58
2022-12-09T08:17:23.027Z,99385.33
2022-12-09T08:19:57.299Z,99373.19
2022-12-09T08:22:30.640Z,99374.96
2022-12-09T08:25:04.785Z,99360.61
2022-12-09T08:27:38.874Z,99349.17
2022-12-09T08:30:17.165Z,99352.95
2022-12-09T08:32:51.602Z,99348.17
2022-12-09T08:35:25.086Z,99346.44
2022-12-09T08:37:58.312Z,99347.92
2022-12-09T08:40:32.361Z,99346.23
2022-12-09T08:43:07.025Z,99322.81
2022-12-09T08:45:41.802Z,99344.28
2022-12-09T08:48:15.133Z,99318.72
2022-12-09T08:50:48.687Z,99323.52
2022-12-09T08:53:22.181Z,99319.80
2022-12-09T08:55:55.324Z,99302.42
2022-12-09T08:58:28.823Z,99318.72
2022-12-09T09:01:02.450Z,99308.17
2022-12-09T09:03:36.436Z,99303.84
2022-12-09T09:06:11.189Z,99292.83
2022-12-09T09:08:45.326Z,99301.11
2022-12-09T09:11:21.580Z,99303.55
2022-12-09T09:13:55.395Z,99298.44
2022-12-09T09:16:29.863Z,99293.33
2022-12-09T09:19:05.750Z,99301.61
2022-12-09T09:21:39.462Z,99303.76
2022-12-09T09:24:16.246Z,99305.53
2022-12-09T09:26:51.101Z,99307.47
2022-12-09T09:29:25.561Z,99296.55
2022-12-09T09:32:00.353Z,99302.53
2022-12-09T09:34:33.614Z,99311.69
2022-12-09T09:37:07.008Z,99301.38
2022-12-09T09:39:41.987Z,99299.19
2022-12-09T09:42:19.732Z,99288.58
2022-12-09T09:44:56.312Z,99282.85
2022-12-09T09:47:37.882Z,99292.30
2022-12-09T09:50:10.975Z,99275.55
2022-12-09T09:52:45.462Z,99269.53
2022-12-09T09:55:21.858Z,99268.38
2022-12-09T09:57:58.233Z,99256.30
2022-12-09T10:00:35.151Z,99255.70
2022-12-09T10:03:14.084Z,99254.39
2022-12-09T10:05:50.919Z,99260.09
2022-12-09T10:08:30.521Z,99254.72
2022-12-09T10:11:11.983Z,99253.16
2022-12-09T10:13:51.500Z,99250.59
2022-12-09T10:16:28.868Z,99238.59
2022-12-09T10:19:09.216Z,99238.52
2022-12-09T10:21:45.604Z,99232.08
2022-12-09T10:24:24.094Z,99226.85
2022-12-09T10:27:07.558Z,99226.27
2022-12-09T10:29:50.023Z,99226.06
2022-12-09T10:32:25.694Z,99220.95
2022-12-09T10:35:00.353Z,99216.63
2022-12-09T10:37:36.966Z,99213.98
2022-12-09T10:40:22.102Z,99222.98
2022-12-09T10:43:16.806Z,99207.55
2022-12-09T10:46:17.182Z,99209.23
2022-12-09T10:48:37.677Z,99205.70
2022-12-09T10:51:14.505Z,99217.33
2022-12-09T10:53:49.485Z,99208.09
2022-12-09T10:56:26.081Z,99210.89
2022-12-09T10:59:13.962Z,99188.59
2022-12-09T11:02:02.802Z,99200.22
2022-12-09T11:04:39.720Z,99191.23
2022-12-09T11:07:19.897Z,99196.62
2022-12-09T11:09:56.452Z,99184.09
2022-12-09T11:12:41.034Z,99189.83
2022-12-09T11:15:29.746Z,99195.81
2022-12-09T11:18:07.333Z,99186.66
2022-12-09T11:20:42.324Z,99176.59
2022-12-09T11:23:19.108Z,99175.03
2022-12-09T11:25:59.386Z,99172.64
2022-12-09T11:28:35.165Z,99172.64
2022-12-09T11:31:33.578Z,99171.85
2022-12-09T11:33:54.780Z,99158.12
2022-12-09T11:36:32.624Z,99178.37
2022-12-09T11:39:21.363Z,99177.13
2022-12-09T11:42:18.917Z,99174.86
2022-12-09T11:44:58.525Z,99169.21
2022-12-09T11:50:19.592Z,99173.96
2022-12-09T11:53:08.112Z,99176.43
2022-12-09T11:55:45.001Z,99185.08
2022-12-09T11:58:21.898Z,99166.48
2022-12-09T12:00:58.961Z,99168.34
2022-12-09T12:03:38.322Z,99155.45
2022-12-09T12:06:15.899Z,99160.48
2022-12-09T12:08:53.734Z,99152.81
2022-12-09T12:11:31.668Z,99153.01
2022-12-09T12:14:05.794Z,99145.77
2022-12-09T12:16:42.518Z,99143.99
2022-12-09T12:19:19.170Z,99136.78
2022-12-09T12:22:06.697Z,99137.12
2022-12-09T12:25:00.833Z,99149.81
2022-12-09T12:27:44.390Z,99141.16
2022-12-09T12:30:20.943Z,99155.25
2022-12-09T12:35:53.756Z,99151.01
2022-12-09T12:38:34.596Z,99154.55
2022-12-09T12:41:11.890Z,99154.92
2022-12-09T12:44:14.355Z,99157.19
2022-12-09T12:46:57.291Z,99158.50
2022-12-09T12:49:44.360Z,99152.61
2022-12-09T12:52:54.340Z,99155.58
2022-12-09T12:55:06.090Z,99161.67
2022-12-09T12:57:42.970Z,99160.77
2022-12-09T13:00:20.278Z,99157.52
2022-12-09T13:03:03.128Z,99162.83
2022-12-09T13:05:35.799Z,99146.06
2022-12-09T13:08:12.765Z,99145.36
2022-12-09T13:10:50.640Z,99146.96
2022-12-09T13:13:24.441Z,99141.16
2022-12-09T13:16:01.730Z,99135.39
2022-12-09T13:18:38.805Z,99126.69
2022-12-09T13:21:13.290Z,99136.53
2022-12-09T13:24:02.518Z,99133.89
2022-12-09T13:26:42.508Z,99131.33
2022-12-09T13:29:28.362Z,99118.56
2022-12-09T13:32:06.211Z,99122.69
2022-12-09T13:34:43.033Z,99114.86
2022-12-09T13:37:38.119Z,99150.77
2022-12-09T13:40:32.123Z,99146.89
2022-12-09T13:43:28.202Z,99144.22
2022-12-09T13:46:02.968Z,99136.84
2022-12-09T13:48:54.509Z,99127.02
2022-12-09T13:51:29.909Z,99137.72
2022-12-09T13:54:07.102Z,99136.16
2022-12-09T13:56:42.180Z,99133.52
2022-12-09T13:59:36.407Z,99143.89
2022-12-09T14:02:29.360Z,99134.59
2022-12-09T14:05:08.181Z,99129.73
2022-12-09T14:07:44.141Z,99132.91
2022-12-09T14:10:40.132Z,99125.16
2022-12-09T14:13:33.357Z,99123.38
2022-12-09T14:16:20.612Z,99121.53
2022-12-09T14:18:55.641Z,99123.30
2022-12-09T14:21:33.612Z,99120.83
2022-12-09T14:24:35.561Z,99111.08
2022-12-09T14:27:28.938Z,99119.81
2022-12-09T14:30:05.500Z,99120.66
2022-12-09T14:32:41.756Z,99112.80
2022-12-09T14:35:27.032Z,99098.14
2022-12-09T14:38:08.662Z,99110.79
2022-12-09T14:41:05.459Z,99109.22
2022-12-09T14:43:59.489Z,99110.30
2022-12-09T14:46:35.474Z,99116.64
2022-12-09T14:49:16.067Z,99131.09
2022-12-09T14:51:53.587Z,99108.11
2022-12-09T14:54:31.959Z,99113.62
2022-12-09T14:57:11.692Z,99103.25
2022-12-09T14:59:50.085Z,99103.41
2022-12-09T15:02:26.922Z,99103.59
2022-12-09T15:05:03.425Z,99095.34
2022-12-09T15:07:37.557Z,99102.19
2022-12-09T15:10:20.859Z,99106.34
2022-12-09T15:12:57.395Z,99097.89
2022-12-09T15:15:36.520Z,99096.91
2022-12-09T15:18:14.804Z,99092.67
2022-12-09T15:20:54.081Z,99090.41
2022-12-09T15:23:30.891Z,99092.59
2022-12-09T15:26:07.564Z,99074.09
2022-12-09T15:28:42.542Z,99088.47
2022-12-09T15:31:19.260Z,99095.14
2022-12-09T15:33:55.281Z,99099.55
2022-12-09T15:36:32.225Z,99098.68
2022-12-09T15:39:08.895Z,99098.06
2022-12-09T15:42:02.304Z,99098.31
2022-12-09T15:44:40.005Z,99104.33
2022-12-09T15:47:16.243Z,99114.34
2022-12-09T15:49:53.197Z,99115.23
2022-12-09T15:52:30.653Z,99106.80
2022-12-09T15:55:07.084Z,99101.57
2022-12-09T15:57:41.608Z,99090.94
2022-12-09T16:00:17.672Z,99086.89
2022-12-09T16:02:52.560Z,99092.70
2022-12-09T16:05:27.838Z,99070.50
2022-12-09T16:08:02.859Z,99073.05
2022-12-09T16:10:47.626Z,99077.02
2022-12-09T16:13:22.505Z,99078.78
2022-12-09T16:15:58.357Z,99068.73
2022-12-09T16:18:35.939Z,99072.44
2022-12-09T16:21:24.920Z,99076.41
2022-12-09T16:24:00.868Z,99074.30
2022-12-09T16:26:38.489Z,99075.72
2022-12-09T16:29:20.036Z,99080.74
2022-12-09T16:32:25.243Z,99079.31
2022-12-09T16:35:01.125Z,99082.57
2022-12-09T16:37:41.412Z,99082.66
2022-12-09T16:40:50.394Z,99080.02
2022-12-09T16:43:26.254Z,99076.48
2022-12-09T16:46:01.302Z,99078.70
2022-12-09T16:48:35.253Z,99077.72
2022-12-09T16:51:14.872Z,99077.09
2022-12-09T16:53:50.849Z,99072.44
2022-12-09T16:56:26.398Z,99075.97
2022-12-09T16:59:00.466Z,99072.72
2022-12-09T17:01:36.881Z,99073.66
2022-12-09T17:04:15.404Z,99064.16
2022-12-09T17:06:48.487Z,99062.86
2022-12-09T17:09:22.120Z,99054.29
2022-12-09T17:11:55.229Z,99053.93
2022-12-09T17:14:28.445Z,99052.20
2022-12-09T17:17:02.827Z,99042.84
2022-12-09T17:19:37.871Z,99040.56
2022-12-09T17:22:11.236Z,99031.57
2022-12-09T17:24:44.303Z,99032.09
2022-12-09T17:27:17.445Z,99040.37
2022-12-09T17:29:50.691Z,99046.55
2022-12-09T17:32:25.806Z,99039.31
2022-12-09T17:35:05.181Z,99032.44
2022-12-09T17:37:36.291Z,99042.66
2022-12-09T17:40:11.836Z,99039.23
2022-12-09T17:42:45.453Z,99037.71
2022-12-09T17:45:20.104Z,99033.58
2022-12-09T17:47:53.315Z,99041.88
2022-12-09T17:50:27.024Z,99045.38
2022-12-09T17:53:02.284Z,99035.52
2022-12-09T17:55:38.544Z,99033.30
2022-12-09T17:58:11.713Z,99031.89
2022-12-09T18:00:46.057Z,99036.38
2022-12-09T18:03:39.307Z,99035.74
2022-12-09T18:05:54.137Z,99041.67
2022-12-09T18:08:28.888Z,99035.23
2022-12-09T18:11:05.026Z,99042.55
2022-12-09T18:13:39.352Z,99034.88
2022-12-09T18:16:14.368Z,99035.08
2022-12-09T18:18:48.003Z,99031.73
2022-12-09T18:21:21.415Z,99022.38
2022-12-09T18:23:54.675Z,99023.36
2022-12-09T18:26:32.035Z,99019.19
2022-12-09T18:29:03.368Z,99011.59
2022-12-09T18:31:36.753Z,99008.89
2022-12-09T18:34:14.578Z,99015.14
2022-12-09T18:36:48.351Z,99006.67
2022-12-09T18:39:22.188Z,98999.24
2022-12-09T18:41:55.519Z,98993.27
2022-12-09T18:44:28.591Z,98995.90
2022-12-09T18:47:01.801Z,98995.82
2022-12-09T18:49:37.287Z,99001.35
2022-12-09T18:52:10.374Z,98993.69
2022-12-09T18:54:43.552Z,98991.36
2022-12-09T18:57:16.675Z,98988.09
2022-12-09T18:59:50.405Z,98984.52
2022-12-09T19:02:25.039Z,98981.05
2022-12-09T19:04:58.569Z,98976.42
2022-12-09T19:07:33.525Z,98976.87
2022-12-09T19:10:07.975Z,98974.31
2022-12-09T19:12:52.655Z,98974.58
2022-12-09T19:15:16.794Z,98966.91
2022-12-09T19:17:49.842Z,98971.05
2022-12-09T19:20:23.796Z,98973.37
2022-12-09T19:22:57.334Z,98974.95
2022-12-09T19:25:30.480Z,98967.02
2022-12-09T19:28:03.544Z,98960.48
2022-12-09T19:30:36.726Z,98962.59
2022-12-09T19:33:09.980Z,98956.91
2022-12-09T19:35:43.366Z,98956.39
2022-12-09T19:38:16.640Z,98958.94
2022-12-09T19:40:49.778Z,98952.36
2022-12-09T19:43:22.932Z,98960.95
2022-12-09T19:45:57.200Z,98958.84
2022-12-09T19:48:31.534Z,98953.39
2022-12-09T19:51:14.999Z,98960.73
2022-12-09T19:53:55.487Z,98958.42
2022-12-09T19:56:34.452Z,98959.13
2022-12-09T19:59:11.712Z,98957.63
2022-12-09T20:01:50.505Z,98956.69
2022-12-09T20:04:51.114Z,98954.02
2022-12-09T20:07:10.264Z,98952.09
2022-12-09T20:09:43.453Z,98959.84
2022-12-09T20:12:16.937Z,98947.61
2022-12-09T20:14:50.298Z,98951.23
2022-12-09T20:17:23.334Z,98938.53
2022-12-09T20:20:01.838Z,98941.72
2022-12-09T20:22:36.398Z,98945.33
2022-12-09T20:25:11.521Z,98950.17
2022-12-09T20:27:44.575Z,98950.52
2022-12-09T20:30:20.065Z,98947.97
2022-12-09T20:32:53.434Z,98945.14
2022-12-09T20:35:31.431Z,98948.05
2022-12-09T20:38:07.158Z,98950.88
2022-12-09T20:40:44.329Z,98941.92
2022-12-09T20:43:18.275Z,98954.45
2022-12-09T20:45:51.422Z,98953.62
2022-12-09T20:48:24.923Z,98946.59
2022-12-09T20:51:00.030Z,98956.10
2022-12-09T20:53:36.572Z,98955.05
2022-12-09T20:56:14.448Z,98953.79
2022-12-09T20:58:54.278Z,98963.57
2022-12-09T21:01:32.343Z,98951.19
2022-12-09T21:04:10.245Z,98962.62
2022-12-09T21:06:51.449Z,98959.90
2022-12-09T21:09:31.184Z,98952.95
2022-12-09T21:12:09.415Z,98957.15
2022-12-09T21:14:43.410Z,98945.98
2022-12-09T21:17:17.931Z,98951.45
2022-12-09T21:19:51.314Z,98956.56
2022-12-09T21:22:24.424Z,98948.08
2022-12-09T21:24:58.632Z,98942.39
2022-12-09T21:27:33.541Z,98939.02
2022-12-09T21:30:11.096Z,98943.33
2022-12-09T21:32:44.326Z,98928.91
2022-12-09T21:35:19.325Z,98923.89
2022-12-09T21:37:56.113Z,98914.45
2022-12-09T21:40:27.251Z,98910.92
2022-12-09T21:43:00.336Z,98910.92
2022-12-09T21:45:33.674Z,98913.59
2022-12-09T21:48:07.785Z,98905.94
2022-12-09T21:50:45.704Z,98911.13
2022-12-09T21:53:22.719Z,98892.11
2022-12-09T21:55:56.492Z,98910.33
2022-12-09T21:58:30.950Z,98903.53
2022-12-09T22:01:10.126Z,98896.15
2022-12-09T22:03:43.514Z,98895.33
2022-12-09T22:06:18.396Z,98899.73
2022-12-09T22:08:51.495Z,98904.05
2022-12-09T22:11:26.312Z,98898.58
2022-12-09T22:14:00.363Z,98908.32
2022-12-09T22:16:36.397Z,98915.46
2022-12-09T22:19:13.110Z,98901.00
2022-12-09T22:21:46.415Z,98894.95
2022-12-09T22:24:19.972Z,98892.20
2022-12-09T22:26:53.225Z,98893.18
2022-12-09T22:29:26.256Z,98892.20
2022-12-09T22:31:59.411Z,98897.16
2022-12-09T22:34:32.611Z,98895.31
2022-12-09T22:37:35.255Z,98896.52
2022-12-09T22:39:42.981Z,98897.81
2022-12-09T22:42:15.992Z,98892.89
2022-12-09T22:44:49.133Z,98889.70
2022-12-09T22:47:22.233Z,98897.93
2022-12-09T22:49:55.384Z,98901.54
2022-12-09T22:52:28.223Z,98894.84
2022-12-09T22:55:01.334Z,98891.72
2022-12-09T22:57:34.338Z,98894.36
2022-12-09T23:00:11.642Z,98884.84
2022-12-09T23:02:45.081Z,98890.45
2022-12-09T23:05:18.232Z,98901.69
2022-12-09T23:07:51.356Z,98900.62
2022-12-09T23:10:24.440Z,98899.02
2022-12-09T23:12:57.416Z,98893.91
2022-12-09T23:15:30.220Z,98892.89
2022-12-09T23:18:03.998Z,98886.46
2022-12-09T23:20:37.604Z,98883.59
2022-12-09T23:23:10.763Z,98896.52
2022-12-09T23:25:43.882Z,98900.84
2022-12-09T23:28:17.795Z,98903.48
2022-12-09T23:30:51.018Z,98906.82
2022-12-09T23:33:24.562Z,98904.53
2022-12-09T23:35:57.757Z,98902.28
2022-12-09T23:38:30.594Z,98904.61
2022-12-09T23:41:03.760Z,98901.00
2022-12-09T23:43:38.361Z,98908.93
2022-12-09T23:46:15.995Z,98904.69
2022-12-09T23:48:50.270Z,98909.09
2022-12-09T23:51:25.455Z,98906.95
2022-12-09T23:54:00.850Z,98906.39
2022-12-09T23:56:39.232Z,98909.28
2022-12-09T23:59:14.566Z,98910.97
